Time;durP1;ratioP1;P1;durP2;ratioP2;P2;SDS_P1;SDS_P2;PMS_P1;PMS_P2;Temp;Humidity;BMP_temperature;BMP_pressure;BME280_temperature;BME280_humidity;BME280_pressure;Samples;Min_cycle;Max_cycle;Signal;HPM_P1;HPM_P2
2022/03/15 00:00:34;;;;;;;8.75;3.80;;;13.00;99.90;;;;;;4994346;28;20046;-63
2022/03/15 00:03:00;;;;;;;11.07;4.15;;;13.00;99.90;;;;;;4994146;28;20101;-62
2022/03/15 00:05:26;;;;;;;13.20;4.80;;;12.90;99.90;;;;;;4996219;28;20537;-63
2022/03/15 00:07:52;;;;;;;10.15;4.03;;;12.90;99.90;;;;;;4996835;28;20019;-63
2022/03/15 00:10:18;;;;;;;12.80;4.35;;;13.00;99.90;;;;;;4998787;28;20109;-62
2022/03/15 00:12:44;;;;;;;13.95;4.85;;;13.00;99.90;;;;;;4998323;28;20423;-62
2022/03/15 00:15:11;;;;;;;9.93;4.18;;;13.00;99.90;;;;;;4995631;28;20034;-62
2022/03/15 00:17:38;;;;;;;14.73;4.10;;;12.90;99.90;;;;;;4997531;28;20029;-63
2022/03/15 00:20:09;;;;;;;10.60;4.30;;;12.90;99.90;;;;;;4995100;28;20042;-62
2022/03/15 00:22:36;;;;;;;10.18;3.92;;;13.00;99.90;;;;;;4999844;28;20061;-62
2022/03/15 00:25:07;;;;;;;12.45;4.22;;;13.00;99.90;;;;;;4996678;28;20039;-62
2022/03/15 00:27:34;;;;;;;11.23;4.15;;;13.00;99.90;;;;;;4998239;28;20105;-62
2022/03/15 00:30:01;;;;;;;12.23;4.18;;;13.00;99.90;;;;;;4998388;28;20041;-62
2022/03/15 00:32:27;;;;;;;10.90;3.80;;;13.10;99.90;;;;;;4995946;28;20027;-62
2022/03/15 00:34:53;;;;;;;11.18;3.75;;;13.10;99.90;;;;;;4996512;28;20019;-63
2022/03/15 00:37:20;;;;;;;14.25;4.10;;;13.10;99.90;;;;;;4999200;28;20031;-62
2022/03/15 00:39:46;;;;;;;12.73;4.18;;;13.20;99.90;;;;;;4997688;28;20030;-62
2022/03/15 00:42:12;;;;;;;12.45;4.38;;;13.20;99.90;;;;;;4996536;28;20117;-62
2022/03/15 00:44:38;;;;;;;11.38;4.00;;;13.30;99.90;;;;;;4997139;28;20018;-63
2022/03/15 00:47:05;;;;;;;13.40;4.07;;;13.20;99.90;;;;;;4994217;28;20034;-62
2022/03/15 00:49:31;;;;;;;12.40;4.15;;;13.20;99.90;;;;;;4999874;28;20483;-63
2022/03/15 00:51:57;;;;;;;11.27;4.13;;;13.30;99.90;;;;;;4997237;28;20129;-63
2022/03/15 00:54:23;;;;;;;10.23;4.10;;;13.30;99.90;;;;;;4996282;28;20029;-62
2022/03/15 00:56:52;;;;;;;12.40;4.18;;;13.30;99.90;;;;;;4996822;28;20052;-63
2022/03/15 00:59:19;;;;;;;12.07;4.05;;;13.30;99.90;;;;;;4994092;28;20077;-63
2022/03/15 01:01:45;;;;;;;11.50;4.18;;;13.30;99.90;;;;;;4997774;28;20060;-63
2022/03/15 01:04:12;;;;;;;11.35;4.25;;;13.30;99.90;;;;;;4997380;28;20027;-63
2022/03/15 01:06:38;;;;;;;10.77;3.95;;;13.30;99.90;;;;;;4997026;28;20026;-62
2022/03/15 01:09:05;;;;;;;12.73;4.38;;;13.20;99.90;;;;;;4997381;28;20029;-63
2022/03/15 01:11:31;;;;;;;10.13;3.92;;;13.20;99.90;;;;;;4995617;28;20034;-62
2022/03/15 01:13:57;;;;;;;11.43;3.97;;;13.30;99.90;;;;;;4994783;28;20158;-63
2022/03/15 01:16:22;;;;;;;11.00;3.97;;;13.30;99.90;;;;;;4997408;28;20399;-63
2022/03/15 01:18:48;;;;;;;10.25;3.92;;;13.30;99.90;;;;;;4997511;28;20037;-63
2022/03/15 01:21:14;;;;;;;11.80;3.88;;;13.30;99.90;;;;;;4995286;28;20034;-63
2022/03/15 01:23:41;;;;;;;10.18;4.18;;;13.30;99.90;;;;;;4995265;28;20117;-63
2022/03/15 01:26:07;;;;;;;10.60;3.80;;;13.30;99.90;;;;;;4993186;28;20042;-63
2022/03/15 01:28:33;;;;;;;11.20;4.00;;;13.30;99.90;;;;;;4999084;28;20023;-63
2022/03/15 01:30:59;;;;;;;7.93;3.70;;;13.30;99.90;;;;;;4997283;28;20631;-63
2022/03/15 01:33:25;;;;;;;10.77;3.80;;;13.30;99.90;;;;;;4995612;28;20127;-63
2022/03/15 01:35:51;;;;;;;11.82;4.22;;;13.30;99.90;;;;;;4996530;28;20402;-63
2022/03/15 01:38:16;;;;;;;15.07;3.78;;;13.30;99.90;;;;;;4993101;28;20042;-63
2022/03/15 01:40:42;;;;;;;12.82;3.90;;;13.30;99.90;;;;;;4997915;28;20065;-63
2022/03/15 01:43:08;;;;;;;11.10;4.20;;;13.40;99.90;;;;;;4997378;28;20026;-63
2022/03/15 01:45:40;;;;;;;13.52;4.45;;;13.40;99.90;;;;;;4997034;28;20037;-63
2022/03/15 01:48:07;;;;;;;11.10;3.95;;;13.30;99.90;;;;;;4995249;28;20115;-63
2022/03/15 01:50:34;;;;;;;11.25;4.05;;;13.40;99.90;;;;;;4994664;28;20410;-63
2022/03/15 01:53:00;;;;;;;12.05;3.50;;;13.40;99.90;;;;;;4993604;28;20519;-63
2022/03/15 01:55:26;;;;;;;11.60;4.50;;;13.50;99.90;;;;;;4998687;28;20034;-63
2022/03/15 01:57:51;;;;;;;10.05;3.90;;;13.40;99.90;;;;;;4996428;28;20015;-63
2022/03/15 02:00:19;;;;;;;10.35;4.38;;;13.40;99.90;;;;;;4994858;28;20137;-63
2022/03/15 02:02:45;;;;;;;13.85;4.07;;;13.40;99.90;;;;;;4996717;28;20025;-63
2022/03/15 02:05:11;;;;;;;10.57;3.70;;;13.40;99.90;;;;;;4976609;28;20399;-63
2022/03/15 02:07:38;;;;;;;12.20;3.95;;;13.40;99.90;;;;;;4998253;28;20030;-63
2022/03/15 02:10:06;;;;;;;10.07;4.25;;;13.40;99.90;;;;;;4996255;28;20458;-63
2022/03/15 02:12:36;;;;;;;10.00;3.80;;;13.40;99.90;;;;;;4994753;28;20033;-63
2022/03/15 02:15:03;;;;;;;13.20;4.20;;;13.40;99.90;;;;;;4996464;28;20168;-63
2022/03/15 02:17:29;;;;;;;13.43;4.35;;;13.40;99.90;;;;;;4994102;28;20034;-63
2022/03/15 02:19:55;;;;;;;11.27;4.70;;;13.50;99.90;;;;;;4994537;28;20514;-63
2022/03/15 02:22:22;;;;;;;15.65;4.25;;;13.50;99.90;;;;;;4996003;28;20042;-63
2022/03/15 02:24:48;;;;;;;13.98;4.18;;;13.40;99.90;;;;;;4996073;28;20045;-63
2022/03/15 02:27:14;;;;;;;9.82;4.22;;;13.60;99.90;;;;;;4994799;28;20140;-63
2022/03/15 02:29:40;;;;;;;10.82;4.28;;;13.50;99.90;;;;;;4995336;28;20117;-63
2022/03/15 02:32:07;;;;;;;10.43;4.28;;;13.50;99.90;;;;;;4991254;28;20465;-63
2022/03/15 02:34:33;;;;;;;10.20;4.38;;;13.50;99.90;;;;;;4997924;28;20030;-63
2022/03/15 02:36:59;;;;;;;13.48;4.43;;;13.50;99.90;;;;;;4995616;28;20105;-63
2022/03/15 02:39:25;;;;;;;13.30;4.47;;;13.50;99.90;;;;;;4994385;28;20041;-63
2022/03/15 02:41:51;;;;;;;11.55;4.32;;;13.50;99.90;;;;;;4995261;28;20050;-63
2022/03/15 02:44:17;;;;;;;16.17;5.05;;;13.60;99.90;;;;;;4991920;28;20031;-63
2022/03/15 02:46:47;;;;;;;11.75;4.53;;;13.50;99.90;;;;;;4996504;28;20438;-63
2022/03/15 02:49:13;;;;;;;11.45;4.60;;;13.50;99.90;;;;;;4995050;28;20030;-63
2022/03/15 02:51:38;;;;;;;13.73;4.47;;;13.50;99.90;;;;;;4992924;28;20105;-63
2022/03/15 02:54:09;;;;;;;11.57;4.35;;;13.60;99.90;;;;;;4994418;28;20029;-63
2022/03/15 02:56:42;;;;;;;14.45;4.60;;;13.50;99.90;;;;;;4994018;28;20537;-63
2022/03/15 02:59:08;;;;;;;;;;;13.50;99.90;;;;;;4991499;28;20027;-63
2022/03/15 03:01:34;;;;;;;12.05;4.57;;;13.50;99.90;;;;;;4996536;28;19914;-63
2022/03/15 03:04:00;;;;;;;12.00;5.15;;;13.50;99.90;;;;;;4995071;28;20041;-63
2022/03/15 03:06:26;;;;;;;15.73;5.00;;;13.60;99.90;;;;;;4995271;28;20026;-63
2022/03/15 03:08:52;;;;;;;11.68;4.60;;;13.50;99.90;;;;;;4993809;28;20041;-63
2022/03/15 03:11:18;;;;;;;14.65;5.15;;;13.50;99.90;;;;;;4991522;28;20123;-63
2022/03/15 03:13:44;;;;;;;11.25;5.05;;;13.50;99.90;;;;;;4996430;28;20027;-63
2022/03/15 03:16:12;;;;;;;14.27;5.07;;;13.50;99.90;;;;;;4995395;28;20031;-63
2022/03/15 03:18:38;;;;;;;15.05;5.30;;;13.50;99.90;;;;;;4993494;28;20109;-63
2022/03/15 03:21:05;;;;;;;15.93;5.00;;;13.50;99.90;;;;;;4994930;28;20033;-63
2022/03/15 03:23:34;;;;;;;16.83;4.95;;;13.50;99.90;;;;;;4993580;28;20495;-63
2022/03/15 03:26:01;;;;;;;12.60;4.32;;;13.50;99.90;;;;;;4992153;28;20379;-63
2022/03/15 03:28:36;;;;;;;15.70;4.70;;;13.40;99.90;;;;;;4996932;28;20030;-62
2022/03/15 03:31:03;;;;;;;13.63;4.68;;;13.50;99.90;;;;;;4993201;28;20408;-63
2022/03/15 03:33:30;;;;;;;13.88;5.00;;;13.50;99.90;;;;;;4994845;28;20031;-63
2022/03/15 03:35:56;;;;;;;16.17;4.53;;;13.50;99.90;;;;;;4995212;28;20061;-62
2022/03/15 03:38:22;;;;;;;10.23;4.63;;;13.50;99.90;;;;;;4988789;28;20372;-63
2022/03/15 03:40:48;;;;;;;13.55;4.57;;;13.50;99.90;;;;;;4993422;28;20053;-63
2022/03/15 03:43:14;;;;;;;14.00;4.72;;;13.40;99.90;;;;;;4995508;28;20066;-63
2022/03/15 03:45:39;;;;;;;19.50;4.60;;;13.40;99.90;;;;;;4994754;28;20110;-63
2022/03/15 03:48:07;;;;;;;12.75;4.72;;;13.40;99.90;;;;;;4994844;28;20053;-63
2022/03/15 03:50:34;;;;;;;11.15;4.80;;;13.40;99.90;;;;;;4992959;28;20033;-63
2022/03/15 03:53:00;;;;;;;13.90;4.55;;;13.40;99.90;;;;;;4991808;28;20037;-63
2022/03/15 03:55:26;;;;;;;11.38;4.65;;;13.50;99.90;;;;;;4996672;28;20555;-64
2022/03/15 03:57:52;;;;;;;15.25;5.22;;;13.50;99.90;;;;;;4993058;28;20859;-63
2022/03/15 04:00:18;;;;;;;13.00;5.10;;;13.50;99.90;;;;;;4994595;28;20026;-63
2022/03/15 04:02:44;;;;;;;14.20;4.70;;;13.40;99.90;;;;;;4994271;28;20034;-63
2022/03/15 04:05:10;;;;;;;14.20;4.90;;;13.50;99.90;;;;;;4990508;28;20368;-63
2022/03/15 04:07:39;;;;;;;16.05;4.72;;;13.40;99.90;;;;;;4996750;28;20030;-63
2022/03/15 04:10:06;;;;;;;15.70;4.93;;;13.50;99.90;;;;;;4993152;28;20165;-65
2022/03/15 04:12:33;;;;;;;17.73;4.85;;;13.50;99.90;;;;;;4994791;28;20026;-63
2022/03/15 04:14:59;;;;;;;14.60;4.72;;;13.50;99.90;;;;;;4994274;28;20540;-63
2022/03/15 04:17:26;;;;;;;13.60;4.53;;;13.50;99.90;;;;;;4990323;28;20484;-63
2022/03/15 04:19:52;;;;;;;15.35;4.72;;;13.60;99.90;;;;;;4993980;28;20030;-63
2022/03/15 04:22:18;;;;;;;11.50;4.65;;;13.50;99.90;;;;;;4995735;28;20043;-63
2022/03/15 04:24:44;;;;;;;18.23;5.28;;;13.50;99.90;;;;;;4994480;28;20364;-63
2022/03/15 04:27:09;;;;;;;16.75;4.85;;;13.50;99.90;;;;;;4994281;28;20142;-62
2022/03/15 04:29:35;;;;;;;14.32;5.03;;;13.50;99.90;;;;;;4992833;28;20026;-63
2022/03/15 04:32:01;;;;;;;19.00;5.00;;;13.50;99.90;;;;;;4991111;28;20865;-63
2022/03/15 04:34:30;;;;;;;15.13;5.30;;;13.50;99.90;;;;;;4995105;28;20431;-63
2022/03/15 04:36:57;;;;;;;20.88;5.50;;;13.40;99.90;;;;;;4992776;28;20030;-63
2022/03/15 04:39:23;;;;;;;18.63;5.15;;;13.40;99.90;;;;;;4994588;28;20050;-63
2022/03/15 04:41:50;;;;;;;13.88;5.00;;;13.40;99.90;;;;;;4994050;28;20042;-63
2022/03/15 04:44:16;;;;;;;14.90;4.90;;;13.40;99.90;;;;;;4989806;28;20035;-63
2022/03/15 04:46:42;;;;;;;16.58;4.90;;;13.40;99.90;;;;;;4995996;28;20054;-63
2022/03/15 04:49:07;;;;;;;19.70;5.72;;;13.40;99.90;;;;;;4992785;28;20392;-63
2022/03/15 04:51:34;;;;;;;13.85;5.05;;;13.40;99.90;;;;;;4997013;28;20038;-62
2022/03/15 04:54:00;;;;;;;14.35;4.80;;;13.40;99.90;;;;;;4998095;28;20033;-63
2022/03/15 04:56:26;;;;;;;17.58;4.90;;;13.40;99.90;;;;;;4993764;28;20161;-62
2022/03/15 04:58:52;;;;;;;19.25;5.55;;;13.50;99.90;;;;;;4996848;28;20109;-62
2022/03/15 05:01:18;;;;;;;16.13;4.88;;;13.40;99.90;;;;;;4998932;28;20042;-62
2022/03/15 05:03:44;;;;;;;20.30;5.63;;;13.40;99.90;;;;;;4996170;28;20036;-63
2022/03/15 05:06:10;;;;;;;16.33;5.72;;;13.50;99.90;;;;;;4996159;28;20503;-63
2022/03/15 05:08:36;;;;;;;17.80;5.40;;;13.40;99.90;;;;;;4996156;28;20025;-62
2022/03/15 05:11:07;;;;;;;17.63;5.68;;;13.40;99.90;;;;;;4994769;28;20105;-62
2022/03/15 05:13:45;;;;;;;17.20;5.95;;;13.40;99.90;;;;;;4998998;28;20022;-62
2022/03/15 05:16:21;;;;;;;13.27;5.00;;;13.40;99.90;;;;;;4998142;28;20034;-63
2022/03/15 05:18:53;;;;;;;16.08;5.10;;;13.30;99.90;;;;;;4997377;28;20034;-63
2022/03/15 05:21:20;;;;;;;16.95;5.95;;;13.30;99.90;;;;;;4996970;28;20034;-63
2022/03/15 05:23:47;;;;;;;16.48;5.45;;;13.40;99.90;;;;;;4997103;28;20117;-63
2022/03/15 05:26:15;;;;;;;17.73;5.78;;;13.40;99.90;;;;;;4976375;28;20030;-62
2022/03/15 05:28:41;;;;;;;15.93;5.22;;;13.40;99.90;;;;;;5006297;28;20038;-62
2022/03/15 05:31:07;;;;;;;15.85;5.70;;;13.40;99.90;;;;;;4997166;28;20030;-63
2022/03/15 05:33:33;;;;;;;17.45;5.75;;;13.30;99.90;;;;;;4996945;28;20157;-63
2022/03/15 05:35:59;;;;;;;19.90;5.63;;;13.30;99.90;;;;;;4995613;28;20026;-63
2022/03/15 05:38:25;;;;;;;16.73;6.10;;;13.40;99.90;;;;;;4994396;28;20491;-63
2022/03/15 05:40:51;;;;;;;21.35;6.00;;;13.40;99.90;;;;;;4995700;28;20058;-63
2022/03/15 05:43:19;;;;;;;15.93;6.13;;;13.30;99.90;;;;;;4998225;28;20365;-63
2022/03/15 05:45:45;;;;;;;11.85;5.03;;;13.30;99.90;;;;;;4996673;28;20555;-63
2022/03/15 05:48:11;;;;;;;17.10;5.50;;;13.30;99.90;;;;;;4996790;28;20081;-63
2022/03/15 05:50:37;;;;;;;18.83;5.60;;;13.30;99.90;;;;;;4995333;28;20380;-63
2022/03/15 05:53:06;;;;;;;17.77;5.45;;;13.30;99.90;;;;;;4993657;28;20026;-63
2022/03/15 05:55:32;;;;;;;17.05;5.10;;;13.20;99.90;;;;;;4997231;28;20037;-63
2022/03/15 05:57:59;;;;;;;18.85;5.28;;;13.30;99.90;;;;;;4996802;28;20134;-63
2022/03/15 06:00:25;;;;;;;17.02;5.30;;;13.30;99.90;;;;;;4994972;28;20046;-63
2022/03/15 06:02:51;;;;;;;16.08;5.22;;;13.30;99.90;;;;;;4996203;28;20132;-63
2022/03/15 06:05:16;;;;;;;17.42;5.10;;;13.30;99.90;;;;;;4991069;28;20506;-63
2022/03/15 06:07:47;;;;;;;18.35;5.35;;;13.30;99.90;;;;;;4998560;28;20113;-63
2022/03/15 06:10:15;;;;;;;15.20;4.60;;;13.30;99.90;;;;;;4995573;28;20035;-63
2022/03/15 06:12:42;;;;;;;19.70;5.97;;;13.30;99.90;;;;;;4996062;28;20407;-63
2022/03/15 06:15:08;;;;;;;14.65;4.85;;;13.30;99.90;;;;;;4995277;28;20122;-63
2022/03/15 06:17:57;;;;;;;15.63;4.80;;;13.30;99.90;;;;;;4994578;28;20033;-63
2022/03/15 06:20:25;;;;;;;13.05;4.88;;;13.30;99.90;;;;;;4978835;28;20460;-63
2022/03/15 06:22:51;;;;;;;18.35;4.80;;;13.30;99.90;;;;;;4996144;28;20038;-63
2022/03/15 06:25:17;;;;;;;23.83;5.25;;;13.30;99.90;;;;;;4996602;28;20030;-62
2022/03/15 06:27:43;;;;;;;17.52;5.35;;;13.40;99.90;;;;;;4996281;28;20022;-62
2022/03/15 06:30:11;;;;;;;18.60;5.70;;;13.30;99.90;;;;;;4995930;28;20876;-62
2022/03/15 06:32:37;;;;;;;18.85;4.53;;;13.30;99.90;;;;;;4993097;28;20038;-63
2022/03/15 06:35:07;;;;;;;14.63;4.90;;;13.30;99.90;;;;;;4993157;28;20610;-63
2022/03/15 06:37:36;;;;;;;17.75;5.13;;;13.40;99.90;;;;;;4997762;28;20034;-63
2022/03/15 06:40:03;;;;;;;14.35;4.90;;;13.40;99.90;;;;;;4995054;28;20117;-63
2022/03/15 06:42:28;;;;;;;14.88;5.13;;;13.40;99.90;;;;;;4995857;28;20042;-63
2022/03/15 06:44:54;;;;;;;17.42;4.97;;;13.40;99.90;;;;;;4994294;28;20029;-62
2022/03/15 06:47:20;;;;;;;19.63;5.30;;;13.40;99.90;;;;;;4992035;28;20464;-63
2022/03/15 06:49:46;;;;;;;16.35;4.93;;;13.40;99.90;;;;;;4996266;28;20030;-62
2022/03/15 06:52:13;;;;;;;18.33;4.95;;;13.50;99.90;;;;;;4995122;28;20484;-63
2022/03/15 06:54:38;;;;;;;14.98;4.63;;;13.40;99.90;;;;;;4993730;28;20029;-62
2022/03/15 06:57:04;;;;;;;16.42;4.65;;;13.50;99.90;;;;;;4995279;28;20402;-62
2022/03/15 06:59:30;;;;;;;18.95;4.72;;;13.50;99.90;;;;;;4993201;28;20026;-62
2022/03/15 07:01:56;;;;;;;13.82;4.50;;;13.50;99.90;;;;;;4993638;28;20092;-62
2022/03/15 07:04:22;;;;;;;15.77;5.40;;;13.50;99.90;;;;;;4996973;28;20030;-62
2022/03/15 07:06:48;;;;;;;19.15;5.63;;;13.50;99.90;;;;;;4995786;28;20114;-62
2022/03/15 07:09:13;;;;;;;17.50;5.03;;;13.50;99.90;;;;;;4994846;28;20097;-63
2022/03/15 07:11:39;;;;;;;14.68;4.53;;;13.50;99.90;;;;;;4992709;28;20026;-62
2022/03/15 07:14:06;;;;;;;16.23;4.90;;;13.60;99.90;;;;;;4991807;28;20031;-63
2022/03/15 07:16:31;;;;;;;17.35;4.90;;;13.50;99.90;;;;;;4997569;28;20060;-63
2022/03/15 07:18:57;;;;;;;15.95;4.50;;;13.60;99.90;;;;;;4995158;28;20030;-63
2022/03/15 07:21:23;;;;;;;15.85;4.90;;;13.60;99.90;;;;;;4994848;28;20104;-63
2022/03/15 07:23:49;;;;;;;15.20;4.93;;;13.60;99.90;;;;;;4993224;28;20512;-63
2022/03/15 07:26:15;;;;;;;15.45;5.03;;;13.70;99.90;;;;;;4990847;28;20093;-63
2022/03/15 07:28:41;;;;;;;12.40;4.53;;;13.70;99.90;;;;;;4996999;28;20042;-64
2022/03/15 07:31:07;;;;;;;16.30;4.60;;;13.70;99.90;;;;;;4994648;28;20073;-62
2022/03/15 07:33:33;;;;;;;15.32;4.60;;;13.70;99.90;;;;;;4993516;28;20509;-62
2022/03/15 07:36:00;;;;;;;19.45;4.60;;;13.70;99.90;;;;;;4994771;28;20140;-62
2022/03/15 07:38:26;;;;;;;17.77;4.90;;;13.80;99.90;;;;;;4991899;28;20034;-62
2022/03/15 07:40:52;;;;;;;15.35;4.50;;;13.80;99.90;;;;;;4992697;28;20399;-62
2022/03/15 07:43:23;;;;;;;19.33;5.00;;;13.80;99.90;;;;;;4995845;28;20038;-62
2022/03/15 07:45:50;;;;;;;16.58;4.85;;;13.80;99.90;;;;;;4994775;28;20046;-62
2022/03/15 07:48:17;;;;;;;16.33;5.13;;;13.90;99.90;;;;;;4994706;28;20402;-62
2022/03/15 07:50:43;;;;;;;14.90;5.05;;;13.90;99.90;;;;;;4992534;28;20113;-61
2022/03/15 07:53:09;;;;;;;13.50;4.22;;;13.90;99.90;;;;;;4989346;28;20033;-62
2022/03/15 07:55:35;;;;;;;14.65;4.28;;;13.90;99.90;;;;;;4996650;28;20030;-62
2022/03/15 07:58:01;;;;;;;16.52;5.38;;;14.00;99.90;;;;;;4994584;28;20038;-63
2022/03/15 08:00:27;;;;;;;14.18;4.30;;;14.10;99.90;;;;;;4994581;28;20565;-63
2022/03/15 08:02:53;;;;;;;13.95;4.53;;;14.10;99.90;;;;;;4991803;28;20117;-63
2022/03/15 08:05:20;;;;;;;13.52;4.40;;;14.10;99.90;;;;;;4990278;28;20057;-63
2022/03/15 08:07:45;;;;;;;14.65;4.43;;;14.10;99.90;;;;;;4994956;28;20514;-63
2022/03/15 08:10:12;;;;;;;18.23;4.93;;;14.20;99.90;;;;;;4995074;28;20035;-63
2022/03/15 08:12:39;;;;;;;13.98;4.65;;;14.20;99.90;;;;;;4993012;28;20031;-63
2022/03/15 08:15:06;;;;;;;13.20;4.50;;;14.30;99.90;;;;;;4994122;28;20133;-61
2022/03/15 08:17:34;;;;;;;16.48;4.90;;;14.20;99.90;;;;;;4992639;28;20033;-61
2022/03/15 08:20:00;;;;;;;14.57;4.22;;;14.40;99.90;;;;;;4992040;28;20026;-62
2022/03/15 08:22:27;;;;;;;13.45;4.10;;;14.40;99.90;;;;;;4996058;28;20522;-62
2022/03/15 08:24:52;;;;;;;14.40;4.22;;;14.50;99.90;;;;;;4994623;28;20029;-62
2022/03/15 08:27:18;;;;;;;11.10;4.60;;;14.50;99.90;;;;;;4997986;28;20030;-63
2022/03/15 08:29:44;;;;;;;13.88;4.45;;;14.60;99.90;;;;;;4996515;28;20081;-61
2022/03/15 08:32:10;;;;;;;13.65;4.22;;;14.60;99.90;;;;;;4976859;28;20038;-61
2022/03/15 08:34:37;;;;;;;10.55;4.38;;;14.60;99.90;;;;;;5000023;28;20495;-61
2022/03/15 08:37:04;;;;;;;13.25;4.43;;;14.70;99.90;;;;;;4998128;28;20483;-61
2022/03/15 08:39:29;;;;;;;11.05;3.83;;;14.60;99.90;;;;;;4997890;28;20038;-61
2022/03/15 08:41:55;;;;;;;14.13;4.25;;;14.60;99.90;;;;;;4995714;28;20042;-62
2022/03/15 08:44:22;;;;;;;12.48;4.35;;;14.80;99.90;;;;;;4993777;28;20033;-62
2022/03/15 08:46:49;;;;;;;19.65;5.32;;;14.90;99.90;;;;;;4996753;28;20105;-62
2022/03/15 08:49:17;;;;;;;11.55;4.18;;;15.10;99.90;;;;;;4998373;28;20030;-63
2022/03/15 08:51:44;;;;;;;10.80;4.20;;;15.10;99.90;;;;;;4995799;28;20034;-62
2022/03/15 08:54:10;;;;;;;10.90;4.25;;;15.20;99.90;;;;;;4997911;28;20026;-62
2022/03/15 08:56:40;;;;;;;12.27;4.05;;;15.30;99.90;;;;;;4996235;28;20025;-62
2022/03/15 08:59:06;;;;;;;16.23;4.47;;;15.30;99.90;;;;;;4993834;28;20114;-63
2022/03/15 09:01:32;;;;;;;10.35;3.83;;;15.30;99.90;;;;;;4999467;28;20062;-62
2022/03/15 09:03:58;;;;;;;12.38;4.00;;;15.40;99.90;;;;;;4997440;28;20053;-62
2022/03/15 09:06:23;;;;;;;11.75;4.05;;;15.70;99.90;;;;;;4997246;28;20621;-62
2022/03/15 09:08:49;;;;;;;12.30;3.65;;;15.80;99.90;;;;;;4996517;28;20026;-62
2022/03/15 09:11:15;;;;;;;11.50;3.88;;;15.80;99.90;;;;;;5007496;28;20027;-63
2022/03/15 09:13:42;;;;;;;9.48;3.63;;;15.80;99.90;;;;;;4999521;28;20034;-62
2022/03/15 09:16:08;;;;;;;10.40;3.70;;;16.00;99.90;;;;;;4997110;28;20039;-62
2022/03/15 09:18:34;;;;;;;11.90;3.47;;;15.90;99.90;;;;;;4996847;28;20034;-61
2022/03/15 09:21:00;;;;;;;9.32;3.45;;;16.30;99.90;;;;;;4995756;28;20037;-62
2022/03/15 09:23:26;;;;;;;10.40;3.50;;;16.30;99.90;;;;;;4993580;28;20042;-62
2022/03/15 09:25:51;;;;;;;11.30;3.78;;;16.50;99.90;;;;;;4996730;28;20023;-62
2022/03/15 09:28:17;;;;;;;12.18;3.67;;;16.70;99.90;;;;;;4998583;28;20093;-62
2022/03/15 09:30:47;;;;;;;8.95;3.42;;;16.60;99.90;;;;;;4995735;28;20026;-61
2022/03/15 09:33:13;;;;;;;11.68;3.60;;;16.80;99.90;;;;;;4996646;28;20034;-62
2022/03/15 09:35:40;;;;;;;16.42;3.60;;;17.10;99.90;;;;;;4995381;28;20033;-62
2022/03/15 09:38:07;;;;;;;11.18;3.30;;;17.30;99.90;;;;;;4993532;28;20054;-62
2022/03/15 09:40:33;;;;;;;14.02;3.58;;;17.10;99.90;;;;;;4998822;28;20046;-62
2022/03/15 09:43:03;;;;;;;10.95;3.60;;;17.10;99.90;;;;;;4996918;28;20030;-63
2022/03/15 09:45:32;;;;;;;8.90;3.78;;;16.90;99.90;;;;;;4996971;28;20022;-63
2022/03/15 09:48:00;;;;;;;8.57;3.17;;;17.00;99.90;;;;;;4995107;28;20108;-62
2022/03/15 09:50:26;;;;;;;11.10;3.45;;;17.70;99.90;;;;;;4993886;28;20038;-62
2022/03/15 09:52:57;;;;;;;11.20;3.53;;;17.40;99.90;;;;;;4995865;28;20040;-63
2022/03/15 09:55:25;;;;;;;8.88;3.05;;;17.40;99.90;;;;;;4998209;28;20069;-62
2022/03/15 09:57:52;;;;;;;10.07;3.42;;;17.20;99.90;;;;;;4996744;28;20033;-62
2022/03/15 10:00:19;;;;;;;9.13;3.60;;;17.50;99.90;;;;;;4994647;28;20488;-62
2022/03/15 10:02:45;;;;;;;9.93;3.50;;;17.80;99.90;;;;;;4995065;28;20061;-62
2022/03/15 10:05:12;;;;;;;10.15;3.20;;;18.00;99.90;;;;;;4992054;28;20045;-62
2022/03/15 10:07:38;;;;;;;9.15;3.40;;;17.80;99.90;;;;;;4998553;28;20120;-62
2022/03/15 10:10:06;;;;;;;10.27;3.63;;;17.80;99.90;;;;;;4994920;28;20041;-62
2022/03/15 10:12:35;;;;;;;12.00;3.80;;;18.30;99.90;;;;;;4996247;28;20029;-62
2022/03/15 10:15:19;;;;;;;10.98;3.38;;;17.90;99.90;;;;;;4996650;28;20502;-62
2022/03/15 10:17:52;;;;;;;10.05;3.35;;;18.20;99.90;;;;;;4995939;28;20049;-62
2022/03/15 10:20:19;;;;;;;8.13;3.30;;;18.20;99.90;;;;;;4977592;28;20053;-62
2022/03/15 10:23:01;;;;;;;8.38;2.88;;;18.60;99.90;;;;;;4997103;28;20061;-63
2022/03/15 10:25:31;;;;;;;9.75;3.10;;;18.60;99.90;;;;;;4996429;28;20061;-63
2022/03/15 10:27:59;;;;;;;10.02;3.40;;;18.30;99.90;;;;;;4993800;28;20027;-61
2022/03/15 10:30:27;;;;;;;16.58;4.30;;;18.20;99.90;;;;;;4995341;28;20032;-62
2022/03/15 10:32:54;;;;;;;10.50;3.55;;;18.30;99.90;;;;;;4986146;28;20031;-62
2022/03/15 10:35:22;;;;;;;10.25;3.17;;;19.00;99.90;;;;;;5007129;28;20392;-63
2022/03/15 10:37:50;;;;;;;8.60;3.38;;;18.50;99.90;;;;;;4996378;28;20068;-62
2022/03/15 10:40:17;;;;;;;9.13;3.20;;;18.70;99.90;;;;;;4995451;28;20561;-62
2022/03/15 10:42:44;;;;;;;11.68;3.53;;;19.10;99.90;;;;;;4994241;28;20062;-63
2022/03/15 10:45:19;;;;;;;7.93;3.05;;;19.10;99.90;;;;;;4994881;28;20050;-63
2022/03/15 10:47:54;;;;;;;9.48;3.63;;;19.30;99.90;;;;;;4993198;28;20029;-62
2022/03/15 10:50:21;;;;;;;11.43;3.22;;;19.10;99.90;;;;;;4977750;28;20580;-63
2022/03/15 10:52:48;;;;;;;11.13;3.28;;;19.10;99.90;;;;;;4995732;28;20029;-64
2022/03/15 10:55:32;;;;;;;8.95;2.70;;;19.00;99.90;;;;;;4996632;28;20033;-62
2022/03/15 10:58:09;;;;;;;12.90;3.50;;;19.10;99.90;;;;;;4995533;28;20034;-63
2022/03/15 11:00:37;;;;;;;13.07;3.40;;;19.30;99.90;;;;;;4994718;28;20030;-67
2022/03/15 11:03:13;;;;;;;10.07;2.45;;;19.40;99.90;;;;;;4995102;28;20042;-65
2022/03/15 11:05:40;;;;;;;7.65;3.17;;;19.60;99.90;;;;;;4992121;28;20113;-64
2022/03/15 11:08:11;;;;;;;8.02;3.10;;;19.20;99.90;;;;;;4991987;28;20114;-64
2022/03/15 11:10:39;;;;;;;8.50;2.67;;;18.90;99.90;;;;;;4997064;28;20040;-64
2022/03/15 11:13:12;;;;;;;8.30;2.92;;;19.30;99.90;;;;;;4995209;28;20109;-64
2022/03/15 11:15:49;;;;;;;10.05;2.97;;;19.00;99.90;;;;;;4995018;28;20026;-64
2022/03/15 11:18:17;;;;;;;8.88;3.08;;;19.30;99.90;;;;;;4993871;28;20030;-64
2022/03/15 11:20:45;;;;;;;5.20;2.60;;;19.30;99.90;;;;;;4993367;28;20034;-64
2022/03/15 11:23:13;;;;;;;6.10;2.58;;;19.10;99.90;;;;;;4991044;28;20070;-64
2022/03/15 11:25:48;;;;;;;8.23;2.72;;;19.50;99.90;;;;;;4997191;28;20096;-64
2022/03/15 11:28:24;;;;;;;8.20;2.45;;;19.80;99.90;;;;;;4994418;28;20034;-62
2022/03/15 11:30:52;;;;;;;7.80;2.80;;;19.90;99.90;;;;;;4994862;28;20030;-62
2022/03/15 11:33:19;;;;;;;7.70;2.88;;;20.30;99.90;;;;;;4994833;28;20022;-61
2022/03/15 11:35:46;;;;;;;8.70;2.83;;;20.30;99.90;;;;;;4994385;28;20018;-62
2022/03/15 11:38:13;;;;;;;8.07;2.60;;;20.40;99.90;;;;;;4991206;28;20440;-62
2022/03/15 11:40:40;;;;;;;5.70;2.15;;;20.60;99.90;;;;;;4996809;28;20097;-62
2022/03/15 11:43:22;;;;;;;9.75;2.95;;;20.50;99.90;;;;;;4994753;28;20590;-61
2022/03/15 11:45:59;;;;;;;7.35;2.53;;;20.50;99.90;;;;;;4993550;28;20025;-62
2022/03/15 11:49:00;;;;;;;6.93;2.47;;;20.50;99.90;;;;;;4994667;28;20038;-63
2022/03/15 11:51:50;;;;;;;7.55;2.47;;;20.70;99.90;;;;;;4994860;28;20088;-63
2022/03/15 11:54:45;;;;;;;7.28;2.42;;;20.70;99.90;;;;;;4994516;28;20050;-60
2022/03/15 11:57:25;;;;;;;8.68;2.28;;;20.60;99.90;;;;;;4984337;28;20121;-61
2022/03/15 11:59:53;;;;;;;6.22;2.40;;;20.40;99.90;;;;;;4996270;28;20032;-62
2022/03/15 12:02:28;;;;;;;8.25;2.40;;;20.60;99.90;;;;;;4994815;28;20420;-62
2022/03/15 12:04:56;;;;;;;7.03;2.30;;;20.30;99.90;;;;;;4998018;28;20491;-61
2022/03/15 12:10:34;;;;;;;8.60;2.55;;;20.80;99.90;;;;;;4995560;28;20045;-60
2022/03/15 12:13:03;;;;;;;7.38;2.47;;;20.20;99.90;;;;;;4998149;28;20545;-61
2022/03/15 12:15:38;;;;;;;8.50;2.15;;;21.00;99.90;;;;;;4998315;28;20169;-61
2022/03/15 12:18:27;;;;;;;9.30;2.58;;;21.10;99.90;;;;;;4998381;28;20116;-62
2022/03/15 12:21:03;;;;;;;7.00;2.45;;;21.10;99.90;;;;;;4997443;28;20045;-62
2022/03/15 12:23:45;;;;;;;8.80;3.05;;;21.00;99.90;;;;;;4994409;28;20081;-62
2022/03/15 12:26:30;;;;;;;3.95;2.17;;;20.90;99.90;;;;;;4992834;28;20076;-62
2022/03/15 12:29:03;;;;;;;6.53;2.35;;;20.50;99.90;;;;;;5008028;28;20044;-62
2022/03/15 12:31:33;;;;;;;;;;;20.80;99.90;;;;;;4999099;28;20038;-62
2022/03/15 12:34:10;;;;;;;7.85;2.50;;;21.20;99.90;;;;;;4997889;28;19913;-62
2022/03/15 12:36:40;;;;;;;6.45;2.55;;;21.10;99.90;;;;;;4996499;28;20114;-62
2022/03/15 12:39:11;;;;;;;7.80;2.50;;;21.10;99.90;;;;;;4998996;28;20072;-62
2022/03/15 12:41:39;;;;;;;7.35;2.55;;;21.00;99.90;;;;;;4996032;28;20057;-63
2022/03/15 12:44:06;;;;;;;8.45;2.28;;;21.00;99.90;;;;;;4995090;28;20035;-62